Time;durP1;ratioP1;P1;durP2;ratioP2;P2;SDS_P1;SDS_P2;PMS_P1;PMS_P2;Temp;Humidity;BMP_temperature;BMP_pressure;BME280_temperature;BME280_humidity;BME280_pressure;Samples;Min_cycle;Max_cycle;Signal;HPM_P1;HPM_P2
2022/06/24 00:01:31;;;;;;;;;;;;;;;;;;5056576;28;20434;-83
2022/06/24 00:03:57;;;;;;;;;;;;;;;;;;5067904;28;19917;-85
2022/06/24 00:06:23;;;;;;;;;;;;;;;;;;5050205;28;19938;-84
2022/06/24 00:08:50;;;;;;;;;;;;;;;;;;5057335;28;20022;-84
2022/06/24 00:11:16;;;;;;;;;;;;;;;;;;5062176;28;20373;-88
2022/06/24 00:13:43;;;;;;;;;;;;;;;;;;5061170;28;19967;-87
2022/06/24 00:16:10;;;;;;;;;;;;;;;;;;5057634;28;19913;-85
2022/06/24 00:18:36;;;;;;;;;;;;;;;;;;5061252;28;19948;-83
2022/06/24 00:21:02;;;;;;;;;;;;;;;;;;5059155;28;19954;-84
2022/06/24 00:23:28;;;;;;;;;;;;;;;;;;5050624;28;19928;-84
2022/06/24 00:25:54;;;;;;;;;;;;;;;;;;5061439;28;19974;-84
2022/06/24 00:28:20;;;;;;;;;;;;;;;;;;5059934;28;19912;-85
2022/06/24 00:30:47;;;;;;;;;;;;;;;;;;5051036;28;19952;-85
2022/06/24 00:33:13;;;;;;;;;;;;;;;;;;5068282;28;19920;-85
2022/06/24 00:35:39;;;;;;;;;;;;;;;;;;5074743;28;19919;-85
2022/06/24 00:38:05;;;;;;;;;;;;;;;;;;5075501;28;19916;-85
2022/06/24 00:40:32;;;;;;;;;;;;;;;;;;5074412;28;19917;-86
2022/06/24 00:42:58;;;;;;;;;;;;;;;;;;5069842;28;19962;-85
2022/06/24 00:45:24;;;;;;;;;;;;;;;;;;5067893;28;19948;-84
2022/06/24 00:47:50;;;;;;;;;;;;;;;;;;5047185;28;20372;-84
2022/06/24 00:50:16;;;;;;;;;;;;;;;;;;5061323;28;19952;-85
2022/06/24 00:52:55;;;;;;;;;;;;;;;;;;5066131;28;19955;-86
2022/06/24 00:55:21;;;;;;;;;;;;;;;;;;5049526;28;19960;-84
2022/06/24 00:57:47;;;;;;;;;;;;;;;;;;5061205;28;19940;-85
2022/06/24 01:00:13;;;;;;;;;;;;;;;;;;5030940;28;20296;-85
2022/06/24 01:02:40;;;;;;;;;;;;;;;;;;5053309;28;19948;-85
2022/06/24 01:05:06;;;;;;;;;;;;;;;;;;5061355;28;19960;-84
2022/06/24 01:07:32;;;;;;;;;;;;;;;;;;5058848;28;19964;-84
2022/06/24 01:09:58;;;;;;;;;;;;;;;;;;5059977;28;19949;-84
2022/06/24 01:12:24;;;;;;;;;;;;;;;;;;5065674;28;19940;-84
2022/06/24 01:14:51;;;;;;;;;;;;;;;;;;5056799;28;20006;-83
2022/06/24 01:17:17;;;;;;;;;;;;;;;;;;5063079;28;19993;-85
2022/06/24 01:19:43;;;;;;;;;;;;;;;;;;5066762;28;19948;-85
2022/06/24 01:22:10;;;;;;;;;;;;;;;;;;5068019;28;20345;-85
2022/06/24 01:24:36;;;;;;;;;;;;;;;;;;5062975;28;19945;-83
2022/06/24 01:27:02;;;;;;;;;;;;;;;;;;5066403;28;20461;-84
2022/06/24 01:29:28;;;;;;;;;;;;;;;;;;5059351;28;19943;-83
2022/06/24 01:31:55;;;;;;;;;;;;;;;;;;5050320;28;20017;-82
2022/06/24 01:34:21;;;;;;;;;;;;;;;;;;5064267;28;19971;-86
2022/06/24 01:36:47;;;;;;;;;;;;;;;;;;5067647;28;19966;-86
2022/06/24 01:39:13;;;;;;;;;;;;;;;;;;5063352;28;19956;-85
2022/06/24 01:41:39;;;;;;;;;;;;;;;;;;5063878;28;19959;-85
2022/06/24 01:44:05;;;;;;;;;;;;;;;;;;5062976;28;20349;-85
2022/06/24 01:46:32;;;;;;;;;;;;;;;;;;5062722;28;19951;-85
2022/06/24 01:48:58;;;;;;;;;;;;;;;;;;5056750;28;19943;-85
2022/06/24 01:51:24;;;;;;;;;;;;;;;;;;5062588;28;19917;-86
2022/06/24 01:53:50;;;;;;;;;;;;;;;;;;5070442;28;19974;-86
2022/06/24 01:56:17;;;;;;;;;;;;;;;;;;5071431;28;19975;-87
2022/06/24 01:58:43;;;;;;;;;;;;;;;;;;5066652;28;19955;-86
2022/06/24 02:01:10;;;;;;;;;;;;;;;;;;5068804;28;19964;-87
2022/06/24 02:03:37;;;;;;;;;;;;;;;;;;5069859;28;19967;-85
2022/06/24 02:06:04;;;;;;;;;;;;;;;;;;5065715;28;19924;-87
2022/06/24 02:08:30;;;;;;;;;;;;;;;;;;5071576;28;19952;-78
2022/06/24 02:13:41;;;;;;;;;;;;;;;;;;5070513;28;19947;-85
2022/06/24 02:16:07;;;;;;;;;;;;;;;;;;5069003;28;19955;-85
2022/06/24 02:18:33;;;;;;;;;;;;;;;;;;5050081;28;20563;-82
2022/06/24 02:21:00;;;;;;;;;;;;;;;;;;5063509;28;19986;-84
2022/06/24 02:23:26;;;;;;;;;;;;;;;;;;5065754;28;20434;-82
2022/06/24 02:25:52;;;;;;;;;;;;;;;;;;5060764;28;20009;-84
2022/06/24 02:28:18;;;;;;;;;;;;;;;;;;5058063;28;19936;-84
2022/06/24 02:30:44;;;;;;;;;;;;;;;;;;5065766;28;19944;-82
2022/06/24 02:33:10;;;;;;;;;;;;;;;;;;5059864;28;19916;-81
2022/06/24 02:35:37;;;;;;;;;;;;;;;;;;5059759;28;20377;-84
2022/06/24 02:38:03;;;;;;;;;;;;;;;;;;5058972;28;19948;-83
2022/06/24 02:40:47;;;;;;;;;;;;;;;;;;5062715;28;19956;-81
2022/06/24 02:43:14;;;;;;;;;;;;;;;;;;5048057;28;19916;-81
2022/06/24 02:45:41;;;;;;;;;;;;;;;;;;5065983;28;19952;-83
2022/06/24 02:48:07;;;;;;;;;;;;;;;;;;5056570;28;20353;-84
2022/06/24 02:50:33;;;;;;;;;;;;;;;;;;5062715;28;19959;-83
2022/06/24 02:52:59;;;;;;;;;;;;;;;;;;5065071;28;19978;-84
2022/06/24 02:55:25;;;;;;;;;;;;;;;;;;5060859;28;20001;-84
2022/06/24 02:57:51;;;;;;;;;;;;;;;;;;5067782;28;19956;-83
2022/06/24 03:00:18;;;;;;;;;;;;;;;;;;5059664;28;19952;-83
2022/06/24 03:02:44;;;;;;;;;;;;;;;;;;5054634;28;19947;-83
2022/06/24 03:05:10;;;;;;;;;;;;;;;;;;5052252;28;19952;-86
2022/06/24 03:07:36;;;;;;;;;;;;;;;;;;5063165;28;19951;-82
2022/06/24 03:10:03;;;;;;;;;;;;;;;;;;5069156;28;20344;-82
2022/06/24 03:12:29;;;;;;;;;;;;;;;;;;5049984;28;20023;-82
2022/06/24 03:14:55;;;;;;;;;;;;;;;;;;5066409;28;20355;-83
2022/06/24 03:17:31;;;;;;;;;;;;;;;;;;;;;
2022/06/24 03:20:00;;;;;;;;;;;;;;;;;;5061260;28;20783;-83
2022/06/24 03:22:53;;;;;;;;;;;;;;;;;;4999227;28;19920;-82
2022/06/24 03:25:36;;;;;;;;;;;;;;;;;;5007751;28;19921;-80
2022/06/24 03:28:04;;;;;;;;;;;;;;;;;;5057962;28;19940;-81
2022/06/24 03:30:30;;;;;;;;;;;;;;;;;;5053243;28;19985;-80
2022/06/24 03:32:56;;;;;;;;;;;;;;;;;;5054451;28;21665;-81
2022/06/24 03:35:23;;;;;;;;;;;;;;;;;;5062428;28;20402;-83
2022/06/24 03:37:49;;;;;;;;;;;;;;;;;;5058877;28;19953;-83
2022/06/24 03:40:15;;;;;;;;;;;;;;;;;;5068170;28;19944;-86
2022/06/24 03:42:41;;;;;;;;;;;;;;;;;;5067341;28;19948;-82
2022/06/24 03:45:07;;;;;;;;;;;;;;;;;;5060671;28;19960;-83
2022/06/24 03:47:33;;;;;;;;;;;;;;;;;;5047449;28;19951;-85
2022/06/24 03:50:00;;;;;;;;;;;;;;;;;;5063002;28;20031;-85
2022/06/24 03:52:26;;;;;;;;;;;;;;;;;;5063397;28;19952;-85
2022/06/24 03:54:52;;;;;;;;;;;;;;;;;;5070165;28;19968;-84
2022/06/24 03:57:18;;;;;;;;;;;;;;;;;;5061991;28;19948;-82
2022/06/24 03:59:45;;;;;;;;;;;;;;;;;;5057262;28;19913;-82
2022/06/24 04:02:11;;;;;;;;;;;;;;;;;;5054680;28;19971;-81
2022/06/24 04:04:37;;;;;;;;;;;;;;;;;;5061726;28;19956;-81
2022/06/24 04:07:03;;;;;;;;;;;;;;;;;;5066616;28;19958;-83
2022/06/24 04:09:29;;;;;;;;;;;;;;;;;;5060863;28;19913;-84
2022/06/24 04:11:56;;;;;;;;;;;;;;;;;;5067358;28;19947;-86
2022/06/24 04:17:07;;;;;;;;;;;;;;;;;;5061406;28;21782;-82
2022/06/24 04:19:33;;;;;;;;;;;;;;;;;;5062391;28;19947;-82
2022/06/24 04:21:59;;;;;;;;;;;;;;;;;;5068426;28;19952;-85
2022/06/24 04:24:25;;;;;;;;;;;;;;;;;;5069323;28;19955;-88
2022/06/24 04:26:51;;;;;;;;;;;;;;;;;;5061740;28;20451;-84
2022/06/24 04:29:18;;;;;;;;;;;;;;;;;;5069805;28;19955;-86
2022/06/24 04:31:44;;;;;;;;;;;;;;;;;;5083657;28;19959;-86
2022/06/24 04:34:10;;;;;;;;;;;;;;;;;;5058395;28;19944;-84
2022/06/24 04:36:37;;;;;;;;;;;;;;;;;;5062709;28;20341;-80
2022/06/24 04:39:03;;;;;;;;;;;;;;;;;;5060232;28;20512;-82
2022/06/24 04:41:29;;;;;;;;;;;;;;;;;;5051909;28;19944;-84
2022/06/24 04:43:55;;;;;;;;;;;;;;;;;;5078736;28;19956;-82
2022/06/24 04:46:21;;;;;;;;;;;;;;;;;;5081563;28;19921;-82
2022/06/24 04:48:47;;;;;;;;;;;;;;;;;;5056173;28;19960;-83
2022/06/24 04:51:14;;;;;;;;;;;;;;;;;;5066918;28;19952;-84
2022/06/24 04:53:40;;;;;;;;;;;;;;;;;;5069681;28;19956;-83
2022/06/24 04:56:06;;;;;;;;;;;;;;;;;;5066202;28;20447;-79
2022/06/24 04:58:33;;;;;;;;;;;;;;;;;;5047929;28;19967;-81
2022/06/24 05:00:59;;;;;;;;;;;;;;;;;;5065786;28;19964;-81
2022/06/24 05:03:25;;;;;;;;;;;;;;;;;;5047485;28;19912;-81
2022/06/24 05:05:51;;;;;;;;;;;;;;;;;;5055738;28;19961;-83
2022/06/24 05:08:17;;;;;;;;;;;;;;;;;;5059126;28;19952;-83
2022/06/24 05:10:43;;;;;;;;;;;;;;;;;;5056781;28;20553;-82
2022/06/24 05:13:10;;;;;;;;;;;;;;;;;;5067022;28;19962;-82
2022/06/24 05:15:36;;;;;;;;;;;;;;;;;;5049952;28;20309;-85
2022/06/24 05:18:02;;;;;;;;;;;;;;;;;;5061352;28;19951;-83
2022/06/24 05:20:28;;;;;;;;;;;;;;;;;;5068218;28;20440;-84
2022/06/24 05:22:54;;;;;;;;;;;;;;;;;;5067395;28;19951;-83
2022/06/24 05:25:20;;;;;;;;;;;;;;;;;;5062660;28;20335;-83
2022/06/24 05:27:47;;;;;;;;;;;;;;;;;;5053896;28;19959;-82
2022/06/24 05:30:13;;;;;;;;;;;;;;;;;;5059913;28;20496;-82
2022/06/24 05:32:39;;;;;;;;;;;;;;;;;;5059802;28;19913;-81
2022/06/24 05:35:06;;;;;;;;;;;;;;;;;;5071220;28;19912;-83
2022/06/24 05:37:33;;;;;;;;;;;;;;;;;;5074835;28;20360;-85
2022/06/24 05:39:59;;;;;;;;;;;;;;;;;;5051831;28;19944;-84
2022/06/24 05:42:25;;;;;;;;;;;;;;;;;;5055881;28;19944;-84
2022/06/24 05:44:51;;;;;;;;;;;;;;;;;;5066231;28;20364;-83
2022/06/24 05:47:17;;;;;;;;;;;;;;;;;;5065438;28;19951;-82
2022/06/24 05:49:43;;;;;;;;;;;;;;;;;;5046225;28;19982;-81
2022/06/24 05:52:10;;;;;;;;;;;;;;;;;;5063773;28;19944;-81
2022/06/24 05:57:20;;;;;;;;;;;;;;;;;;5065452;28;20389;-82
2022/06/24 05:59:47;;;;;;;;;;;;;;;;;;5059131;28;20022;-83
2022/06/24 06:02:13;;;;;;;;;;;;;;;;;;5062074;28;19932;-82
2022/06/24 06:04:39;;;;;;;;;;;;;;;;;;5058631;28;20005;-81
2022/06/24 06:07:05;;;;;;;;;;;;;;;;;;5057560;28;19916;-83
2022/06/24 06:09:34;;;;;;;;;;;;;;;;;;5043490;28;19920;-81
2022/06/24 06:12:00;;;;;;;;;;;;;;;;;;5066100;28;19959;-83
2022/06/24 06:14:26;;;;;;;;;;;;;;;;;;5052124;28;19948;-82
2022/06/24 06:16:52;;;;;;;;;;;;;;;;;;5060079;28;19944;-83
2022/06/24 06:19:19;;;;;;;;;;;;;;;;;;5061506;28;19948;-82
2022/06/24 06:21:45;;;;;;;;;;;;;;;;;;5055325;28;20443;-82
2022/06/24 06:24:11;;;;;;;;;;;;;;;;;;5052619;28;19948;-83
2022/06/24 06:26:37;;;;;;;;;;;;;;;;;;5048525;28;20384;-83
2022/06/24 06:29:04;;;;;;;;;;;;;;;;;;5066234;28;19952;-82
2022/06/24 06:31:30;;;;;;;;;;;;;;;;;;5059451;28;19962;-81
2022/06/24 06:33:56;;;;;;;;;;;;;;;;;;5057712;28;20522;-82
2022/06/24 06:36:22;;;;;;;;;;;;;;;;;;5041012;28;19972;-81
2022/06/24 06:38:49;;;;;;;;;;;;;;;;;;5063703;28;19960;-80
2022/06/24 06:41:15;;;;;;;;;;;;;;;;;;5062207;28;19959;-81
2022/06/24 06:43:50;;;;;;;;;;;;;;;;;;5027820;28;20324;-81
2022/06/24 06:46:20;;;;;;;;;;;;;;;;;;5066225;28;20005;-83
2022/06/24 06:48:46;;;;;;;;;;;;;;;;;;5051371;28;19958;-82
2022/06/24 06:51:12;;;;;;;;;;;;;;;;;;5058941;28;20434;-81
2022/06/24 06:53:38;;;;;;;;;;;;;;;;;;5061557;28;19960;-81
2022/06/24 06:56:04;;;;;;;;;;;;;;;;;;5062753;28;19968;-82
2022/06/24 06:58:30;;;;;;;;;;;;;;;;;;5056502;28;19952;-82
2022/06/24 07:00:57;;;;;;;;;;;;;;;;;;5052704;28;19968;-80
2022/06/24 07:03:23;;;;;;;;;;;;;;;;;;5053430;28;19975;-82
2022/06/24 07:05:49;;;;;;;;;;;;;;;;;;5061477;28;20591;-82
2022/06/24 07:08:15;;;;;;;;;;;;;;;;;;5044718;28;19959;-85
2022/06/24 07:10:41;;;;;;;;;;;;;;;;;;5044293;28;19975;-80
2022/06/24 07:13:08;;;;;;;;;;;;;;;;;;5045700;28;20345;-83
2022/06/24 07:15:34;;;;;;;;;;;;;;;;;;5055863;28;19959;-82
2022/06/24 07:18:00;;;;;;;;;;;;;;;;;;5058778;28;20005;-84
2022/06/24 07:20:29;;;;;;;;;;;;;;;;;;5050754;28;20376;-86
2022/06/24 07:22:55;;;;;;;;;;;;;;;;;;5061210;28;19959;-84
2022/06/24 07:25:21;;;;;;;;;;;;;;;;;;5067686;28;19948;-86
2022/06/24 07:27:48;;;;;;;;;;;;;;;;;;5062012;28;19964;-86
2022/06/24 07:30:14;;;;;;;;;;;;;;;;;;5065719;28;19960;-84
2022/06/24 07:32:41;;;;;;;;;;;;;;;;;;5048635;28;19974;-83
2022/06/24 07:35:07;;;;;;;;;;;;;;;;;;5064513;28;19960;-85
2022/06/24 07:37:33;;;;;;;;;;;;;;;;;;5055558;28;19956;-78
2022/06/24 07:39:59;;;;;;;;;;;;;;;;;;5058992;28;19944;-78
2022/06/24 07:42:25;;;;;;;;;;;;;;;;;;5059664;28;20348;-80
2022/06/24 07:44:52;;;;;;;;;;;;;;;;;;5061409;28;19955;-80
2022/06/24 07:47:18;;;;;;;;;;;;;;;;;;5066625;28;20025;-79
2022/06/24 07:49:44;;;;;;;;;;;;;;;;;;5058198;28;19941;-81
2022/06/24 07:52:10;;;;;;;;;;;;;;;;;;5049467;28;19940;-81
2022/06/24 07:54:36;;;;;;;;;;;;;;;;;;5060876;28;19967;-79
2022/06/24 07:57:02;;;;;;;;;;;;;;;;;;5064145;28;19952;-85
2022/06/24 07:59:29;;;;;;;;;;;;;;;;;;5064244;28;19986;-83
2022/06/24 08:01:55;;;;;;;;;;;;;;;;;;5065877;28;20425;-80
2022/06/24 08:04:21;;;;;;;;;;;;;;;;;;5050657;28;19956;-76
2022/06/24 08:06:49;;;;;;;;;;;;;;;;;;5061246;28;20431;-76
2022/06/24 08:09:16;;;;;;;;;;;;;;;;;;5057634;28;20312;-75
2022/06/24 08:11:42;;;;;;;;;;;;;;;;;;5038911;28;19956;-85
2022/06/24 08:14:08;;;;;;;;;;;;;;;;;;5050941;28;19951;-85
2022/06/24 08:16:34;;;;;;;;;;;;;;;;;;5049234;28;20437;-91
2022/06/24 08:19:00;;;;;;;;;;;;;;;;;;5066246;28;19932;-86
2022/06/24 08:21:27;;;;;;;;;;;;;;;;;;5055331;28;19962;-86
2022/06/24 08:23:53;;;;;;;;;;;;;;;;;;5059343;28;19943;-86
2022/06/24 08:26:19;;;;;;;;;;;;;;;;;;5032603;28;20409;-86
2022/06/24 08:28:45;;;;;;;;;;;;;;;;;;5064690;28;19944;-86
2022/06/24 08:31:11;;;;;;;;;;;;;;;;;;5066866;28;19959;-86
2022/06/24 08:33:37;;;;;;;;;;;;;;;;;;5058644;28;19982;-86
2022/06/24 08:36:04;;;;;;;;;;;;;;;;;;5054081;28;19917;-87
2022/06/24 08:38:30;;;;;;;;;;;;;;;;;;5052589;28;20015;-90
2022/06/24 08:40:56;;;;;;;;;;;;;;;;;;5062765;28;20441;-89
2022/06/24 08:43:22;;;;;;;;;;;;;;;;;;5062464;28;19956;-80
2022/06/24 08:45:48;;;;;;;;;;;;;;;;;;5057889;28;19960;-81
2022/06/24 08:48:15;;;;;;;;;;;;;;;;;;5049199;28;19928;-75
2022/06/24 08:50:41;;;;;;;;;;;;;;;;;;5065386;28;19940;-78
2022/06/24 08:53:07;;;;;;;;;;;;;;;;;;5058824;28;19917;-76
2022/06/24 08:55:33;;;;;;;;;;;;;;;;;;5060622;28;19964;-83
2022/06/24 08:57:59;;;;;;;;;;;;;;;;;;5048762;28;20435;-84
2022/06/24 09:00:26;;;;;;;;;;;;;;;;;;5047236;28;19940;-84
2022/06/24 09:02:52;;;;;;;;;;;;;;;;;;5059915;28;20483;-84
2022/06/24 09:05:18;;;;;;;;;;;;;;;;;;5056646;28;20019;-84
2022/06/24 09:07:44;;;;;;;;;;;;;;;;;;5057783;28;19951;-83
2022/06/24 09:10:11;;;;;;;;;;;;;;;;;;5048073;28;19948;-83
2022/06/24 09:12:38;;;;;;;;;;;;;;;;;;5059611;28;19963;-84
2022/06/24 09:15:04;;;;;;;;;;;;;;;;;;5065890;28;20046;-84
2022/06/24 09:17:31;;;;;;;;;;;;;;;;;;5059030;28;19948;-84
2022/06/24 09:19:57;;;;;;;;;;;;;;;;;;5063356;28;19940;-84
2022/06/24 09:22:23;;;;;;;;;;;;;;;;;;5067542;28;19956;-84
2022/06/24 09:24:51;;;;;;;;;;;;;;;;;;5065754;28;20348;-84
2022/06/24 09:27:17;;;;;;;;;;;;;;;;;;5055253;28;19961;-82
2022/06/24 09:29:43;;;;;;;;;;;;;;;;;;5057353;28;19948;-84
2022/06/24 09:32:09;;;;;;;;;;;;;;;;;;5058697;28;20504;-84
2022/06/24 09:34:35;;;;;;;;;;;;;;;;;;5046914;28;19955;-83
2022/06/24 09:37:02;;;;;;;;;;;;;;;;;;5063301;28;20701;-83
2022/06/24 09:39:28;;;;;;;;;;;;;;;;;;5059410;28;19964;-84
2022/06/24 09:41:54;;;;;;;;;;;;;;;;;;5052210;28;19956;-85
2022/06/24 09:44:20;;;;;;;;;;;;;;;;;;5054579;28;19963;-84
2022/06/24 09:46:46;;;;;;;;;;;;;;;;;;5062631;28;19960;-83
2022/06/24 09:49:13;;;;;;;;;;;;;;;;;;5055485;28;19952;-83
2022/06/24 09:51:39;;;;;;;;;;;;;;;;;;5065582;28;19913;-83
2022/06/24 09:54:05;;;;;;;;;;;;;;;;;;5066914;28;20411;-82
2022/06/24 09:56:31;;;;;;;;;;;;;;;;;;5062802;28;20009;-75
2022/06/24 10:01:44;;;;;;;;;;;;;;;;;;5057280;28;19952;-84
2022/06/24 10:04:10;;;;;;;;;;;;;;;;;;5065977;28;20288;-85
2022/06/24 10:06:37;;;;;;;;;;;;;;;;;;5029661;28;19956;-83
2022/06/24 10:09:03;;;;;;;;;;;;;;;;;;5060694;28;19940;-85
2022/06/24 10:11:29;;;;;;;;;;;;;;;;;;5053310;28;19949;-85
2022/06/24 10:13:55;;;;;;;;;;;;;;;;;;5059500;28;19917;-85
2022/06/24 10:16:21;;;;;;;;;;;;;;;;;;5070967;28;19956;-85
2022/06/24 10:18:48;;;;;;;;;;;;;;;;;;5042886;28;20398;-85
2022/06/24 10:21:14;;;;;;;;;;;;;;;;;;5048553;28;19955;-86
2022/06/24 10:23:40;;;;;;;;;;;;;;;;;;5056736;28;19936;-84
2022/06/24 10:26:06;;;;;;;;;;;;;;;;;;5065868;28;19966;-84
2022/06/24 10:28:32;;;;;;;;;;;;;;;;;;5055056;28;20427;-84
2022/06/24 10:30:59;;;;;;;;;;;;;;;;;;5062347;28;19951;-84
2022/06/24 10:33:25;;;;;;;;;;;;;;;;;;5065727;28;19952;-84
2022/06/24 10:35:57;;;;;;;;;;;;;;;;;;5062063;28;20380;-86
2022/06/24 10:38:23;;;;;;;;;;;;;;;;;;5052451;28;19952;-86
2022/06/24 10:40:49;;;;;;;;;;;;;;;;;;5068117;28;19960;-85
2022/06/24 10:43:21;;;;;;;;;;;;;;;;;;5069246;28;19951;-85
2022/06/24 10:45:48;;;;;;;;;;;;;;;;;;5062820;28;19952;-86
2022/06/24 10:48:14;;;;;;;;;;;;;;;;;;5064909;28;19916;-85
2022/06/24 10:50:40;;;;;;;;;;;;;;;;;;5064064;28;20361;-85
2022/06/24 10:53:06;;;;;;;;;;;;;;;;;;5053195;28;19952;-84
2022/06/24 10:55:33;;;;;;;;;;;;;;;;;;5050264;28;19995;-84
2022/06/24 10:58:03;;;;;;;;;;;;;;;;;;5051193;28;19994;-84
2022/06/24 11:00:30;;;;;;;;;;;;;;;;;;5054605;28;19949;-85
2022/06/24 11:02:56;;;;;;;;;;;;;;;;;;5063141;28;19944;-84
2022/06/24 11:05:22;;;;;;;;;;;;;;;;;;5051542;28;20017;-84
2022/06/24 11:07:49;;;;;;;;;;;;;;;;;;5064303;28;20328;-85
2022/06/24 11:10:15;;;;;;;;;;;;;;;;;;5056492;28;19951;-85
2022/06/24 11:12:41;;;;;;;;;;;;;;;;;;5067181;28;19959;-85
2022/06/24 11:15:08;;;;;;;;;;;;;;;;;;5053026;28;19952;-85
2022/06/24 11:17:34;;;;;;;;;;;;;;;;;;5059156;28;19948;-84
2022/06/24 11:20:00;;;;;;;;;;;;;;;;;;5065198;28;20406;-85
2022/06/24 11:22:28;;;;;;;;;;;;;;;;;;5066932;28;19959;-85
2022/06/24 11:24:54;;;;;;;;;;;;;;;;;;5066137;28;20689;-85
2022/06/24 11:27:20;;;;;;;;;;;;;;;;;;5063810;28;19971;-85
2022/06/24 11:29:47;;;;;;;;;;;;;;;;;;5061460;28;19956;-84
2022/06/24 11:32:13;;;;;;;;;;;;;;;;;;5066459;28;19948;-83
2022/06/24 11:34:39;;;;;;;;;;;;;;;;;;5064970;28;19951;-83
2022/06/24 11:37:05;;;;;;;;;;;;;;;;;;5058649;28;20342;-84
2022/06/24 11:39:31;;;;;;;;;;;;;;;;;;5053868;28;19997;-84
2022/06/24 11:41:57;;;;;;;;;;;;;;;;;;5050206;28;22378;-85
2022/06/24 11:44:24;;;;;;;;;;;;;;;;;;5064658;28;19956;-84
2022/06/24 11:46:50;;;;;;;;;;;;;;;;;;5063489;28;19979;-84
2022/06/24 11:49:16;;;;;;;;;;;;;;;;;;5052635;28;19917;-84
2022/06/24 11:51:42;;;;;;;;;;;;;;;;;;5066523;28;19958;-85
2022/06/24 11:54:09;;;;;;;;;;;;;;;;;;5050978;28;20394;-85
2022/06/24 11:56:35;;;;;;;;;;;;;;;;;;5065949;28;19956;-83
2022/06/24 11:59:01;;;;;;;;;;;;;;;;;;5064657;28;20346;-84
2022/06/24 12:01:27;;;;;;;;;;;;;;;;;;5057698;28;19948;-84
2022/06/24 12:03:54;;;;;;;;;;;;;;;;;;5062675;28;20377;-84
2022/06/24 12:06:20;;;;;;;;;;;;;;;;;;5054744;28;19970;-84
2022/06/24 12:08:46;;;;;;;;;;;;;;;;;;5066845;28;20387;-84
2022/06/24 12:11:12;;;;;;;;;;;;;;;;;;5062393;28;19999;-84
2022/06/24 12:13:38;;;;;;;;;;;;;;;;;;5050081;28;19948;-83
2022/06/24 12:16:05;;;;;;;;;;;;;;;;;;5062001;28;19951;-84
2022/06/24 12:18:31;;;;;;;;;;;;;;;;;;5063513;28;19952;-86
2022/06/24 12:20:57;;;;;;;;;;;;;;;;;;5058912;28;19916;-86
2022/06/24 12:23:23;;;;;;;;;;;;;;;;;;5063122;28;19955;-86
2022/06/24 12:25:50;;;;;;;;;;;;;;;;;;5051373;28;19948;-86
2022/06/24 12:28:16;;;;;;;;;;;;;;;;;;5063069;28;20335;-85
2022/06/24 12:30:44;;;;;;;;;;;;;;;;;;5059315;28;19960;-85
2022/06/24 12:33:11;;;;;;;;;;;;;;;;;;5063481;28;19967;-85
2022/06/24 12:35:43;;;;;;;;;;;;;;;;;;5053310;28;19940;-85
2022/06/24 12:38:09;;;;;;;;;;;;;;;;;;5059108;28;19956;-86
2022/06/24 12:40:36;;;;;;;;;;;;;;;;;;5057227;28;19917;-85
2022/06/24 12:43:02;;;;;;;;;;;;;;;;;;5053657;28;20346;-86
2022/06/24 12:45:28;;;;;;;;;;;;;;;;;;5039856;28;19960;-85
2022/06/24 12:50:39;;;;;;;;;;;;;;;;;;5055096;28;20253;-85
2022/06/24 12:53:09;;;;;;;;;;;;;;;;;;5067698;28;19948;-86
2022/06/24 12:55:35;;;;;;;;;;;;;;;;;;5055039;28;19967;-85
2022/06/24 12:58:01;;;;;;;;;;;;;;;;;;5064736;28;20599;-86
2022/06/24 13:00:28;;;;;;;;;;;;;;;;;;5067868;28;19966;-86
2022/06/24 13:02:54;;;;;;;;;;;;;;;;;;5056710;28;19921;-86
2022/06/24 13:05:20;;;;;;;;;;;;;;;;;;5056141;28;19952;-86
2022/06/24 13:07:47;;;;;;;;;;;;;;;;;;5063566;28;19999;-86
2022/06/24 13:10:13;;;;;;;;;;;;;;;;;;5062682;28;19952;-86
2022/06/24 13:12:39;;;;;;;;;;;;;;;;;;5045538;28;20353;-85
2022/06/24 13:15:05;;;;;;;;;;;;;;;;;;5051400;28;19990;-86
2022/06/24 13:17:31;;;;;;;;;;;;;;;;;;5038352;28;19959;-85
2022/06/24 13:19:57;;;;;;;;;;;;;;;;;;5060163;28;19959;-85
2022/06/24 13:22:24;;;;;;;;;;;;;;;;;;5059208;28;20388;-86
2022/06/24 13:24:50;;;;;;;;;;;;;;;;;;5047233;28;19940;-85
2022/06/24 13:27:16;;;;;;;;;;;;;;;;;;5055086;28;19964;-86
2022/06/24 13:29:42;;;;;;;;;;;;;;;;;;5055276;28;20089;-85
2022/06/24 13:32:08;;;;;;;;;;;;;;;;;;5041381;28;19944;-84
2022/06/24 13:34:34;;;;;;;;;;;;;;;;;;5038935;28;19913;-85
2022/06/24 13:37:01;;;;;;;;;;;;;;;;;;5060255;28;19943;-85
2022/06/24 13:39:27;;;;;;;;;;;;;;;;;;5046723;28;20556;-85
2022/06/24 13:41:53;;;;;;;;;;;;;;;;;;5048635;28;20384;-85
2022/06/24 13:44:19;;;;;;;;;;;;;;;;;;5046413;28;20014;-85
2022/06/24 13:46:46;;;;;;;;;;;;;;;;;;5061437;28;19955;-85
2022/06/24 13:49:12;;;;;;;;;;;;;;;;;;5064337;28;19935;-86
2022/06/24 13:51:38;;;;;;;;;;;;;;;;;;5063840;28;19987;-85
2022/06/24 13:54:04;;;;;;;;;;;;;;;;;;5049978;28;19936;-85
2022/06/24 13:56:30;;;;;;;;;;;;;;;;;;5053859;28;19944;-85
2022/06/24 13:58:56;;;;;;;;;;;;;;;;;;5057461;28;19951;-84
2022/06/24 14:01:23;;;;;;;;;;;;;;;;;;5066083;28;19944;-84
2022/06/24 14:03:49;;;;;;;;;;;;;;;;;;5058104;28;20434;-84
2022/06/24 14:06:18;;;;;;;;;;;;;;;;;;5069536;28;19959;-84
2022/06/24 14:08:44;;;;;;;;;;;;;;;;;;5068226;28;19954;-84
2022/06/24 14:11:10;;;;;;;;;;;;;;;;;;5055975;28;19942;-83
2022/06/24 14:13:38;;;;;;;;;;;;;;;;;;5063960;28;19948;-84
2022/06/24 14:16:04;;;;;;;;;;;;;;;;;;5071545;28;19955;-84
2022/06/24 14:18:30;;;;;;;;;;;;;;;;;;5070161;28;20400;-84
2022/06/24 14:20:57;;;;;;;;;;;;;;;;;;5070122;28;20359;-84
2022/06/24 14:26:08;;;;;;;;;;;;;;;;;;5062092;28;21288;-85
2022/06/24 14:28:34;;;;;;;;;;;;;;;;;;5062123;28;19952;-83
2022/06/24 14:31:01;;;;;;;;;;;;;;;;;;5062154;28;20002;-84
2022/06/24 14:33:27;;;;;;;;;;;;;;;;;;5049932;28;19955;-84
2022/06/24 14:35:53;;;;;;;;;;;;;;;;;;5065464;28;20520;-84
2022/06/24 14:41:04;;;;;;;;;;;;;;;;;;5069820;28;20287;-84
2022/06/24 14:43:31;;;;;;;;;;;;;;;;;;5070648;28;20360;-85
2022/06/24 14:45:57;;;;;;;;;;;;;;;;;;5069044;28;19951;-84
2022/06/24 14:48:23;;;;;;;;;;;;;;;;;;5051734;28;19956;-84
2022/06/24 14:50:49;;;;;;;;;;;;;;;;;;5058161;28;20333;-84
2022/06/24 14:53:15;;;;;;;;;;;;;;;;;;5066104;28;20001;-85
2022/06/24 14:55:42;;;;;;;;;;;;;;;;;;5062607;28;19966;-84
2022/06/24 14:58:08;;;;;;;;;;;;;;;;;;5064833;28;19967;-85
2022/06/24 15:00:35;;;;;;;;;;;;;;;;;;5065637;28;19948;-84
2022/06/24 15:03:01;;;;;;;;;;;;;;;;;;5062139;28;19960;-84
2022/06/24 15:05:27;;;;;;;;;;;;;;;;;;5055280;28;19944;-85
2022/06/24 15:07:53;;;;;;;;;;;;;;;;;;5066444;28;20345;-85
2022/06/24 15:10:20;;;;;;;;;;;;;;;;;;5053142;28;20312;-85
2022/06/24 15:12:46;;;;;;;;;;;;;;;;;;5064030;28;19913;-85
2022/06/24 15:15:12;;;;;;;;;;;;;;;;;;5066312;28;20015;-85
2022/06/24 15:17:38;;;;;;;;;;;;;;;;;;5066910;28;19947;-85
2022/06/24 15:20:04;;;;;;;;;;;;;;;;;;5061777;28;19948;-85
2022/06/24 15:22:33;;;;;;;;;;;;;;;;;;5060745;28;19944;-85
2022/06/24 15:24:59;;;;;;;;;;;;;;;;;;5064629;28;20365;-85
2022/06/24 15:27:25;;;;;;;;;;;;;;;;;;5061722;28;19963;-85
2022/06/24 15:29:51;;;;;;;;;;;;;;;;;;5060867;28;19962;-85
2022/06/24 15:32:17;;;;;;;;;;;;;;;;;;5064373;28;19956;-84
2022/06/24 15:34:45;;;;;;;;;;;;;;;;;;5054780;28;20322;-85
2022/06/24 15:37:11;;;;;;;;;;;;;;;;;;5066923;28;19998;-85
2022/06/24 15:39:37;;;;;;;;;;;;;;;;;;5063259;28;19948;-84
2022/06/24 15:42:03;;;;;;;;;;;;;;;;;;5062859;28;20007;-84
2022/06/24 15:44:30;;;;;;;;;;;;;;;;;;5059085;28;20038;-85
2022/06/24 15:46:56;;;;;;;;;;;;;;;;;;5068313;28;20413;-85
2022/06/24 15:49:22;;;;;;;;;;;;;;;;;;5062877;28;19948;-84
2022/06/24 15:51:48;;;;;;;;;;;;;;;;;;5053054;28;19960;-84
2022/06/24 15:54:14;;;;;;;;;;;;;;;;;;5065935;28;19982;-85
2022/06/24 15:56:41;;;;;;;;;;;;;;;;;;5066431;28;19963;-85
2022/06/24 15:59:07;;;;;;;;;;;;;;;;;;5055661;28;19952;-85
2022/06/24 16:01:33;;;;;;;;;;;;;;;;;;5033556;28;19940;-85
2022/06/24 16:03:59;;;;;;;;;;;;;;;;;;5057299;28;20005;-84
2022/06/24 16:06:26;;;;;;;;;;;;;;;;;;5056924;28;20034;-84
2022/06/24 16:08:52;;;;;;;;;;;;;;;;;;5059851;28;20659;-84
2022/06/24 16:11:18;;;;;;;;;;;;;;;;;;5063534;28;19960;-84
2022/06/24 16:13:44;;;;;;;;;;;;;;;;;;5066153;28;19963;-85
2022/06/24 16:16:10;;;;;;;;;;;;;;;;;;5063301;28;19954;-84
2022/06/24 16:18:36;;;;;;;;;;;;;;;;;;5054710;28;19940;-84
2022/06/24 16:21:03;;;;;;;;;;;;;;;;;;5048306;28;20321;-84
2022/06/24 16:23:29;;;;;;;;;;;;;;;;;;5051086;28;20014;-85
2022/06/24 16:28:43;;;;;;;;;;;;;;;;;;5051861;28;19952;-84
2022/06/24 16:31:09;;;;;;;;;;;;;;;;;;5056771;28;19944;-84
2022/06/24 16:33:35;;;;;;;;;;;;;;;;;;5065201;28;20012;-83
2022/06/24 16:36:03;;;;;;;;;;;;;;;;;;5062475;28;19944;-84
2022/06/24 16:38:29;;;;;;;;;;;;;;;;;;5067884;28;19939;-84
2022/06/24 16:40:56;;;;;;;;;;;;;;;;;;5061404;28;19948;-84
2022/06/24 16:43:28;;;;;;;;;;;;;;;;;;5060475;28;20509;-83
2022/06/24 16:45:54;;;;;;;;;;;;;;;;;;5064858;28;20977;-85
2022/06/24 16:48:20;;;;;;;;;;;;;;;;;;5068414;28;19960;-84
2022/06/24 16:50:46;;;;;;;;;;;;;;;;;;5059207;28;19913;-85
2022/06/24 16:53:12;;;;;;;;;;;;;;;;;;5058164;28;20015;-85
2022/06/24 16:55:38;;;;;;;;;;;;;;;;;;5058283;28;19963;-84
2022/06/24 16:58:05;;;;;;;;;;;;;;;;;;5063139;28;20371;-85
2022/06/24 17:00:31;;;;;;;;;;;;;;;;;;5066683;28;19936;-85
2022/06/24 17:02:58;;;;;;;;;;;;;;;;;;5060584;28;19959;-85